createdAt,value
2023-04-19T00:00:38.580Z,13.09
2023-04-19T00:01:41.345Z,13.09
2023-04-19T00:02:43.581Z,13.14
2023-04-19T00:03:45.763Z,13.12
2023-04-19T00:04:47.839Z,13.11
2023-04-19T00:05:49.692Z,13.11
2023-04-19T00:06:52.090Z,13.18
2023-04-19T00:07:53.774Z,13.15
2023-04-19T00:08:55.487Z,13.18
2023-04-19T00:09:57.183Z,13.18
2023-04-19T00:10:58.891Z,13.16
2023-04-19T00:12:01.199Z,13.20
2023-04-19T00:13:02.971Z,13.19
2023-04-19T00:14:04.611Z,13.19
2023-04-19T00:15:06.706Z,13.19
2023-04-19T00:16:08.418Z,13.18
2023-04-19T00:17:11.725Z,13.18
2023-04-19T00:18:13.378Z,13.12
2023-04-19T00:19:14.998Z,13.14
2023-04-19T00:20:16.667Z,13.16
2023-04-19T00:21:18.267Z,13.16
2023-04-19T00:22:19.906Z,13.15
2023-04-19T00:23:21.529Z,13.14
2023-04-19T00:24:23.161Z,13.14
2023-04-19T00:25:25.314Z,13.14
2023-04-19T00:26:27.098Z,13.15
2023-04-19T00:27:28.707Z,13.05
2023-04-19T00:28:30.991Z,13.05
2023-04-19T00:29:32.693Z,13.04
2023-04-19T00:30:34.392Z,13.04
2023-04-19T00:31:36.126Z,13.05
2023-04-19T00:32:37.787Z,13.04
2023-04-19T00:33:39.438Z,12.99
2023-04-19T00:34:41.132Z,12.94
2023-04-19T00:35:42.730Z,12.84
2023-04-19T00:36:44.359Z,12.73
2023-04-19T00:37:46.062Z,12.76
2023-04-19T00:38:47.661Z,12.56
2023-04-19T00:39:49.319Z,12.60
2023-04-19T00:40:50.911Z,12.61
2023-04-19T00:41:53.211Z,12.60
2023-04-19T00:42:54.806Z,12.48
2023-04-19T00:43:56.427Z,12.38
2023-04-19T00:44:58.083Z,12.38
2023-04-19T00:45:59.730Z,12.36
2023-04-19T00:47:01.341Z,12.34
2023-04-19T00:48:03.230Z,12.22
2023-04-19T00:49:04.854Z,12.22
2023-04-19T00:50:07.166Z,12.16
2023-04-19T00:51:10.569Z,12.20
2023-04-19T00:52:12.902Z,12.15
2023-04-19T00:53:14.629Z,12.06
2023-04-19T00:54:16.642Z,12.00
2023-04-19T00:55:18.509Z,12.07
2023-04-19T00:56:22.011Z,12.05
2023-04-19T00:57:23.718Z,12.02
2023-04-19T00:58:25.425Z,12.02
2023-04-19T00:59:27.048Z,11.86
2023-04-19T01:00:28.693Z,11.86
2023-04-19T01:01:30.359Z,11.82
2023-04-19T01:02:32.401Z,11.83
2023-04-19T01:03:35.176Z,11.79
2023-04-19T01:04:37.070Z,11.79
2023-04-19T01:05:38.734Z,11.73
2023-04-19T01:06:40.739Z,11.64
2023-04-19T01:07:43.182Z,11.62
2023-04-19T01:08:44.754Z,11.58
2023-04-19T01:09:46.444Z,11.52
2023-04-19T01:10:48.080Z,11.54
2023-04-19T01:11:50.287Z,11.48
2023-04-19T01:12:51.949Z,11.46
2023-04-19T01:13:53.591Z,11.41
2023-04-19T01:14:55.190Z,11.44
2023-04-19T01:15:56.842Z,11.39
2023-04-19T01:16:58.618Z,11.35
2023-04-19T01:19:03.785Z,11.25
2023-04-19T01:20:08.768Z,11.22
2023-04-19T01:21:10.321Z,11.15
2023-04-19T01:22:22.896Z,11.18
2023-04-19T01:23:24.566Z,11.13
2023-04-19T01:24:26.193Z,11.11
2023-04-19T01:25:28.436Z,11.14
2023-04-19T01:26:30.003Z,11.10
2023-04-19T01:27:31.548Z,11.10
2023-04-19T01:28:34.112Z,11.03
2023-04-19T01:29:35.961Z,11.00
2023-04-19T01:30:37.733Z,11.01
2023-04-19T01:31:39.409Z,11.06
2023-04-19T01:32:41.098Z,11.07
2023-04-19T01:33:43.468Z,10.99
2023-04-19T01:34:45.101Z,10.96
2023-04-19T01:35:47.473Z,11.03
2023-04-19T01:36:49.239Z,10.99
2023-04-19T01:37:52.862Z,11.01
2023-04-19T01:38:54.516Z,11.08
2023-04-19T01:39:56.117Z,11.04
2023-04-19T01:40:57.702Z,11.00
2023-04-19T01:41:59.333Z,11.00
2023-04-19T01:43:00.943Z,10.97
2023-04-19T01:44:02.543Z,11.00
2023-04-19T01:45:04.529Z,10.93
2023-04-19T01:46:06.135Z,10.96
2023-04-19T01:47:07.992Z,10.94
2023-04-19T01:48:09.746Z,10.90
2023-04-19T01:49:11.401Z,10.96
2023-04-19T01:50:12.993Z,10.94
2023-04-19T01:51:14.535Z,10.89
2023-04-19T01:52:17.296Z,10.94
2023-04-19T01:53:18.934Z,10.94
2023-04-19T01:54:20.595Z,10.83
2023-04-19T01:55:22.176Z,10.89
2023-04-19T01:56:23.860Z,10.84
2023-04-19T01:57:26.666Z,10.77
2023-04-19T01:58:28.243Z,10.74
2023-04-19T01:59:30.457Z,10.70
2023-04-19T02:00:32.119Z,10.61
2023-04-19T02:01:33.791Z,10.66
2023-04-19T02:02:39.826Z,10.63
2023-04-19T02:03:41.650Z,10.61
2023-04-19T02:04:44.255Z,10.52
2023-04-19T02:05:45.880Z,10.55
2023-04-19T02:06:47.448Z,10.60
2023-04-19T02:07:49.104Z,10.64
2023-04-19T02:08:50.765Z,10.61
2023-04-19T02:09:52.371Z,10.56
2023-04-19T02:10:53.971Z,10.50
2023-04-19T02:11:55.581Z,10.48
2023-04-19T02:12:57.225Z,10.50
2023-04-19T02:13:58.849Z,10.46
2023-04-19T02:15:02.121Z,10.50
2023-04-19T02:16:03.989Z,10.50
2023-04-19T02:17:05.686Z,10.56
2023-04-19T02:18:08.278Z,10.55
2023-04-19T02:19:10.002Z,10.56
2023-04-19T02:20:11.636Z,10.56
2023-04-19T02:21:13.226Z,10.56
2023-04-19T02:22:14.852Z,10.57
2023-04-19T02:23:16.506Z,10.52
2023-04-19T02:24:18.171Z,10.59
2023-04-19T02:25:20.085Z,10.59
2023-04-19T02:26:22.206Z,10.56
2023-04-19T02:27:23.802Z,10.56
2023-04-19T02:28:25.434Z,10.57
2023-04-19T02:29:27.151Z,10.55
2023-04-19T02:30:28.760Z,10.49
2023-04-19T02:31:30.434Z,10.53
2023-04-19T02:32:32.559Z,10.46
2023-04-19T02:33:34.256Z,10.45
2023-04-19T02:34:35.864Z,10.42
2023-04-19T02:35:37.625Z,10.48
2023-04-19T02:36:39.374Z,10.45
2023-04-19T02:37:41.072Z,10.49
2023-04-19T02:38:42.660Z,10.49
2023-04-19T02:39:45.882Z,10.45
2023-04-19T02:40:47.437Z,10.43
2023-04-19T02:41:49.274Z,10.46
2023-04-19T02:42:51.269Z,10.48
2023-04-19T02:43:52.979Z,10.49
2023-04-19T02:44:54.722Z,10.46
2023-04-19T02:45:56.366Z,10.42
2023-04-19T02:46:58.081Z,10.33
2023-04-19T02:47:59.787Z,10.40
2023-04-19T02:49:01.512Z,10.28
2023-04-19T02:50:03.260Z,10.28
2023-04-19T02:51:04.837Z,10.30
2023-04-19T02:52:06.390Z,10.29
2023-04-19T02:53:07.979Z,10.30
2023-04-19T02:54:09.546Z,10.35
2023-04-19T02:55:11.847Z,10.29
2023-04-19T02:56:13.456Z,10.22
2023-04-19T02:57:15.056Z,10.18
2023-04-19T02:58:17.522Z,10.18
2023-04-19T02:59:19.105Z,10.18
2023-04-19T03:00:21.255Z,10.18
2023-04-19T03:01:22.914Z,10.15
2023-04-19T03:02:25.499Z,10.10
2023-04-19T03:03:27.268Z,10.05
2023-04-19T03:04:29.088Z,10.02
2023-04-19T03:05:30.937Z,10.01
2023-04-19T03:06:32.535Z,10.01
2023-04-19T03:07:34.124Z,9.94
2023-04-19T03:08:36.442Z,9.99
2023-04-19T03:09:38.183Z,10.01
2023-04-19T03:10:39.813Z,9.98
2023-04-19T03:11:41.438Z,9.99
2023-04-19T03:12:43.791Z,9.99
2023-04-19T03:13:45.455Z,10.01
2023-04-19T03:14:47.556Z,9.91
2023-04-19T03:15:49.210Z,9.95
2023-04-19T03:16:52.323Z,9.92
2023-04-19T03:17:53.909Z,9.91
2023-04-19T03:18:55.579Z,9.95
2023-04-19T03:19:57.525Z,9.84
2023-04-19T03:20:59.124Z,9.85
2023-04-19T03:22:00.774Z,9.84
2023-04-19T03:23:02.491Z,9.74
2023-04-19T03:24:04.437Z,9.67
2023-04-19T03:25:06.969Z,9.73
2023-04-19T03:26:08.591Z,9.67
2023-04-19T03:27:10.352Z,9.65
2023-04-19T03:28:11.900Z,9.68
2023-04-19T03:29:14.379Z,9.52
2023-04-19T03:30:16.029Z,9.59
2023-04-19T03:31:17.670Z,9.55
2023-04-19T03:32:19.246Z,9.57
2023-04-19T03:33:20.863Z,9.52
2023-04-19T03:34:23.223Z,9.44
2023-04-19T03:35:26.466Z,9.51
2023-04-19T03:36:28.077Z,9.48
2023-04-19T03:37:29.648Z,9.47
2023-04-19T03:38:31.255Z,9.47
2023-04-19T03:39:32.850Z,9.44
2023-04-19T03:40:34.541Z,9.47
2023-04-19T03:41:36.138Z,9.46
2023-04-19T03:42:37.712Z,9.44
2023-04-19T03:43:40.124Z,9.41
2023-04-19T03:44:41.984Z,9.40
2023-04-19T03:45:43.600Z,9.43
2023-04-19T03:46:46.749Z,9.41
2023-04-19T03:47:48.675Z,9.38
2023-04-19T03:48:50.313Z,9.41
2023-04-19T03:49:52.006Z,9.43
2023-04-19T03:50:53.607Z,9.43
2023-04-19T03:51:55.184Z,9.41
2023-04-19T03:52:56.792Z,9.40
2023-04-19T03:53:58.365Z,9.38
2023-04-19T03:55:00.802Z,9.43
2023-04-19T03:56:02.686Z,9.46
2023-04-19T03:57:04.545Z,9.47
2023-04-19T03:58:06.160Z,9.47
2023-04-19T03:59:07.752Z,9.48
2023-04-19T04:00:09.731Z,9.47
2023-04-19T04:01:18.844Z,9.43
2023-04-19T04:02:20.580Z,9.46
2023-04-19T04:03:22.731Z,9.44
2023-04-19T04:04:24.702Z,9.44
2023-04-19T04:05:28.003Z,9.44
2023-04-19T04:06:30.209Z,9.40
2023-04-19T04:07:31.776Z,9.36
2023-04-19T04:08:33.384Z,9.36
2023-04-19T04:09:35.030Z,9.40
2023-04-19T04:10:36.623Z,9.40
2023-04-19T04:11:38.256Z,9.33
2023-04-19T04:12:39.875Z,9.37
2023-04-19T04:13:41.564Z,9.31
2023-04-19T04:14:43.208Z,9.31
2023-04-19T04:15:44.790Z,9.33
2023-04-19T04:16:46.520Z,9.31
2023-04-19T04:17:48.696Z,9.28
2023-04-19T04:18:50.379Z,9.31
2023-04-19T04:19:52.172Z,9.31
2023-04-19T04:20:53.782Z,9.37
2023-04-19T04:21:55.601Z,9.41
2023-04-19T04:22:57.210Z,9.41
2023-04-19T04:24:01.879Z,9.46
2023-04-19T04:25:03.511Z,9.48
2023-04-19T04:26:05.438Z,9.62
2023-04-19T04:27:10.231Z,9.79
2023-04-19T04:28:11.832Z,9.89
2023-04-19T04:29:13.602Z,9.95
2023-04-19T04:30:15.255Z,9.88
2023-04-19T04:31:18.314Z,9.98
2023-04-19T04:32:23.499Z,9.98
2023-04-19T04:33:26.632Z,9.99
2023-04-19T04:34:28.242Z,10.03
2023-04-19T04:35:30.627Z,9.99
2023-04-19T04:36:32.254Z,10.09
2023-04-19T04:37:34.691Z,10.06
2023-04-19T04:38:36.990Z,10.23
2023-04-19T04:39:39.875Z,10.35
2023-04-19T04:40:41.547Z,10.55
2023-04-19T04:41:43.767Z,10.69
2023-04-19T04:42:45.661Z,10.73
2023-04-19T04:44:04.569Z,10.76
2023-04-19T04:45:10.929Z,10.74
2023-04-19T04:46:12.544Z,10.76
2023-04-19T04:47:14.225Z,10.84
2023-04-19T04:48:16.209Z,10.81
2023-04-19T04:49:17.867Z,10.87
2023-04-19T04:50:19.651Z,10.90
2023-04-19T04:51:21.264Z,10.90
2023-04-19T04:52:22.886Z,10.84
2023-04-19T04:53:27.656Z,10.84
2023-04-19T04:54:29.273Z,10.80
2023-04-19T04:55:30.971Z,10.83
2023-04-19T04:56:32.674Z,10.83
2023-04-19T04:57:34.342Z,10.89
2023-04-19T04:58:36.039Z,10.94
2023-04-19T04:59:38.067Z,10.91
2023-04-19T05:00:39.689Z,10.89
2023-04-19T05:01:41.476Z,10.96
2023-04-19T05:02:43.338Z,11.01
2023-04-19T05:03:45.690Z,11.07
2023-04-19T05:04:47.375Z,11.15
2023-04-19T05:05:49.074Z,11.11
2023-04-19T05:06:50.717Z,10.97
2023-04-19T05:07:52.382Z,11.06
2023-04-19T05:08:54.002Z,11.03
2023-04-19T05:09:55.604Z,11.07
2023-04-19T05:10:57.184Z,11.13
2023-04-19T05:11:58.780Z,11.22
2023-04-19T05:13:01.378Z,11.28
2023-04-19T05:14:03.483Z,11.36
2023-04-19T05:15:05.561Z,11.34
2023-04-19T05:16:07.260Z,11.41
2023-04-19T05:17:09.111Z,11.48
2023-04-19T05:18:10.814Z,11.58
2023-04-19T05:19:12.431Z,11.62
2023-04-19T05:20:14.150Z,11.76
2023-04-19T05:21:15.781Z,11.76
2023-04-19T05:22:17.665Z,11.85
2023-04-19T05:23:19.343Z,11.89
2023-04-19T05:24:20.938Z,11.97
2023-04-19T05:25:22.692Z,12.05
2023-04-19T05:26:24.337Z,12.09
2023-04-19T05:27:25.946Z,12.10
2023-04-19T05:28:27.510Z,12.03
2023-04-19T05:29:29.106Z,12.07
2023-04-19T05:30:30.774Z,12.15
2023-04-19T05:31:32.472Z,12.22
2023-04-19T05:32:34.221Z,12.20
2023-04-19T05:33:35.838Z,12.16
2023-04-19T05:34:37.426Z,12.12
2023-04-19T05:35:39.131Z,12.17
2023-04-19T05:36:40.750Z,12.17
2023-04-19T05:37:42.378Z,12.16
2023-04-19T05:38:44.021Z,12.29
2023-04-19T05:39:45.719Z,12.22
2023-04-19T05:40:47.322Z,12.37
2023-04-19T05:41:48.878Z,12.40
2023-04-19T05:42:50.549Z,12.44
2023-04-19T05:43:52.286Z,12.47
2023-04-19T05:44:53.911Z,12.40
2023-04-19T05:45:55.606Z,12.53
2023-04-19T05:46:57.187Z,12.58
2023-04-19T05:47:58.848Z,12.51
2023-04-19T05:49:00.554Z,12.51
2023-04-19T05:50:03.330Z,12.53
2023-04-19T05:51:05.122Z,12.58
2023-04-19T05:52:06.742Z,12.65
2023-04-19T05:53:08.323Z,12.73
2023-04-19T05:54:12.688Z,12.77
2023-04-19T05:55:14.404Z,12.83
2023-04-19T05:56:16.077Z,12.97
2023-04-19T05:57:17.692Z,13.02
2023-04-19T05:58:19.444Z,13.07
2023-04-19T05:59:21.061Z,13.09
2023-04-19T06:00:22.668Z,13.16
2023-04-19T06:01:24.463Z,13.19
2023-04-19T06:02:26.309Z,13.18
2023-04-19T06:03:31.069Z,13.39
2023-04-19T06:04:34.235Z,13.48
2023-04-19T06:05:36.004Z,13.50
2023-04-19T06:06:38.227Z,13.63
2023-04-19T06:07:43.095Z,13.69
2023-04-19T06:08:54.575Z,13.77
2023-04-19T06:09:56.849Z,13.86
2023-04-19T06:11:02.425Z,13.87
2023-04-19T06:12:13.482Z,14.00
2023-04-19T06:13:15.573Z,13.90
2023-04-19T06:14:17.582Z,13.76
2023-04-19T06:15:19.486Z,13.86
2023-04-19T06:16:21.276Z,13.77
2023-04-19T06:17:25.353Z,13.81
2023-04-19T06:18:27.233Z,13.80
2023-04-19T06:19:28.912Z,13.76
2023-04-19T06:20:30.534Z,13.67
2023-04-19T06:21:32.988Z,13.76
2023-04-19T06:22:34.711Z,13.62
2023-04-19T06:23:36.344Z,13.52
2023-04-19T06:24:38.005Z,13.49
2023-04-19T06:25:39.658Z,13.48
2023-04-19T06:26:41.282Z,13.46
2023-04-19T06:27:42.979Z,13.38
2023-04-19T06:28:44.604Z,13.55
2023-04-19T06:29:46.298Z,13.55
2023-04-19T06:30:48.036Z,13.70
2023-04-19T06:31:50.078Z,13.62
2023-04-19T06:32:51.721Z,13.53
2023-04-19T06:33:53.522Z,13.58
2023-04-19T06:34:55.346Z,13.62
2023-04-19T06:35:56.919Z,13.66
2023-04-19T06:36:58.615Z,13.69
2023-04-19T06:38:00.190Z,13.74
2023-04-19T06:39:01.910Z,13.84
2023-04-19T06:40:05.463Z,13.83
2023-04-19T06:41:07.372Z,13.96
2023-04-19T06:42:09.151Z,13.97
2023-04-19T06:43:10.819Z,14.06
2023-04-19T06:44:13.446Z,14.00
2023-04-19T06:45:16.220Z,14.07
2023-04-19T06:46:18.404Z,14.17
2023-04-19T06:47:20.059Z,14.23
2023-04-19T06:48:21.686Z,14.25
2023-04-19T06:49:23.288Z,14.28
2023-04-19T06:50:25.093Z,14.20
2023-04-19T06:51:27.070Z,14.21
2023-04-19T06:52:29.160Z,14.21
2023-04-19T06:53:30.797Z,14.18
2023-04-19T06:54:32.502Z,14.16
2023-04-19T06:55:34.084Z,14.07
2023-04-19T06:56:48.834Z,14.07
2023-04-19T06:57:50.545Z,14.11
2023-04-19T06:58:52.338Z,14.16
2023-04-19T06:59:54.899Z,14.21
2023-04-19T07:00:56.824Z,14.21
2023-04-19T07:01:58.697Z,14.32
2023-04-19T07:03:01.617Z,14.42
2023-04-19T07:04:03.795Z,14.55
2023-04-19T07:05:06.239Z,14.58
2023-04-19T07:06:07.960Z,14.62
2023-04-19T07:07:09.571Z,14.71
2023-04-19T07:08:11.151Z,14.81
2023-04-19T07:09:12.757Z,14.75
2023-04-19T07:10:14.527Z,14.76
2023-04-19T07:11:16.151Z,14.75
2023-04-19T07:12:17.711Z,14.64
2023-04-19T07:13:19.303Z,14.60
2023-04-19T07:14:20.919Z,14.75
2023-04-19T07:15:22.583Z,14.82
2023-04-19T07:16:24.330Z,14.74
2023-04-19T07:17:26.377Z,14.78
2023-04-19T07:18:28.085Z,14.92
2023-04-19T07:19:29.772Z,14.89
2023-04-19T07:20:31.731Z,14.83
2023-04-19T07:21:35.090Z,14.78
2023-04-19T07:22:36.947Z,14.51
2023-04-19T07:23:38.587Z,14.51
2023-04-19T07:24:41.922Z,14.51
2023-04-19T07:25:43.826Z,14.64
2023-04-19T07:26:45.540Z,14.74
2023-04-19T07:27:47.282Z,14.76
2023-04-19T07:28:49.498Z,14.91
2023-04-19T07:29:51.217Z,15.06
2023-04-19T07:30:53.439Z,14.93
2023-04-19T07:31:55.602Z,15.06
2023-04-19T07:32:57.424Z,15.10
2023-04-19T07:33:59.107Z,15.18
2023-04-19T07:35:01.073Z,15.02
2023-04-19T07:36:02.745Z,15.12
2023-04-19T07:37:04.339Z,15.16
2023-04-19T07:38:05.932Z,15.23
2023-04-19T07:39:07.553Z,15.39
2023-04-19T07:40:09.856Z,15.35
2023-04-19T07:41:11.481Z,15.37
2023-04-19T07:42:13.072Z,15.49
2023-04-19T07:43:14.767Z,15.54
2023-04-19T07:44:16.656Z,15.53
2023-04-19T07:45:18.403Z,15.57
2023-04-19T07:46:20.187Z,15.66
2023-04-19T07:47:21.961Z,15.78
2023-04-19T07:48:23.533Z,15.87
2023-04-19T07:49:25.170Z,15.98
2023-04-19T07:50:29.472Z,16.09
2023-04-19T07:51:31.669Z,16.08
2023-04-19T07:52:33.291Z,16.05
2023-04-19T07:53:34.863Z,15.87
2023-04-19T07:54:39.194Z,15.88
2023-04-19T07:55:40.869Z,15.84
2023-04-19T07:56:42.571Z,15.64
2023-04-19T07:57:48.182Z,15.68
2023-04-19T07:59:04.465Z,15.88
2023-04-19T08:00:10.609Z,15.88
2023-04-19T08:01:12.250Z,15.97
2023-04-19T08:02:14.042Z,15.97
2023-04-19T08:03:16.056Z,15.87
2023-04-19T08:04:20.573Z,16.00
2023-04-19T08:05:23.204Z,16.18
2023-04-19T08:06:24.961Z,15.91
2023-04-19T08:07:26.559Z,15.84
2023-04-19T08:08:28.335Z,15.87
2023-04-19T08:09:29.950Z,15.80
2023-04-19T08:10:31.738Z,15.60
2023-04-19T08:11:33.360Z,15.47
2023-04-19T08:12:38.583Z,15.47
2023-04-19T08:13:59.495Z,15.35
2023-04-19T08:16:51.828Z,15.42
2023-04-19T08:17:41.847Z,15.56
2023-04-19T08:18:46.233Z,15.66
2023-04-19T08:19:49.633Z,15.76
2023-04-19T08:20:51.360Z,15.77
2023-04-19T08:21:53.007Z,15.91
2023-04-19T08:22:54.683Z,16.04
2023-04-19T08:23:56.501Z,16.12
2023-04-19T08:24:58.185Z,16.01
2023-04-19T08:25:59.781Z,16.07
2023-04-19T08:27:01.657Z,16.18
2023-04-19T08:28:03.390Z,16.17
2023-04-19T08:29:05.043Z,16.08
2023-04-19T08:30:08.021Z,16.15
2023-04-19T08:31:10.280Z,16.12
2023-04-19T08:32:12.560Z,16.28
2023-04-19T08:33:14.253Z,16.45
2023-04-19T08:34:15.937Z,16.59
2023-04-19T08:35:17.648Z,16.59
2023-04-19T08:36:22.423Z,16.66
2023-04-19T08:37:30.725Z,16.55
2023-04-19T08:38:32.328Z,16.52
2023-04-19T08:39:34.631Z,16.36
2023-04-19T08:40:36.667Z,16.30
2023-04-19T08:41:38.418Z,16.51
2023-04-19T08:42:40.485Z,16.51
2023-04-19T08:43:42.061Z,16.48
2023-04-19T08:44:59.595Z,16.47
2023-04-19T08:46:06.435Z,16.52
2023-04-19T08:47:09.040Z,16.53
2023-04-19T08:48:11.922Z,16.58
2023-04-19T08:49:13.890Z,16.45
2023-04-19T08:50:31.091Z,16.49
2023-04-19T08:51:36.028Z,16.45
2023-04-19T08:52:51.518Z,16.52
2023-04-19T08:53:56.789Z,16.59
2023-04-19T08:54:58.367Z,16.55
2023-04-19T08:56:12.941Z,16.38
2023-04-19T08:57:22.061Z,16.47
2023-04-19T08:58:33.355Z,16.45
2023-04-19T08:59:49.049Z,16.49
2023-04-19T09:00:50.641Z,16.36
2023-04-19T09:01:52.370Z,16.36
2023-04-19T09:02:58.676Z,16.28
2023-04-19T09:04:10.262Z,16.24
2023-04-19T09:05:22.647Z,16.30
2023-04-19T09:06:24.586Z,16.36
2023-04-19T09:07:27.031Z,16.35
2023-04-19T09:08:29.606Z,16.28
2023-04-19T09:09:38.788Z,16.36
2023-04-19T09:10:52.498Z,16.26
2023-04-19T09:11:54.092Z,16.29
2023-04-19T09:13:03.277Z,16.36
2023-04-19T09:14:13.922Z,16.41
2023-04-19T09:15:15.915Z,16.48
2023-04-19T09:16:26.484Z,16.52
2023-04-19T09:17:28.406Z,16.58
2023-04-19T09:18:32.264Z,16.55
2023-04-19T09:19:48.692Z,16.70
2023-04-19T09:20:50.408Z,16.73
2023-04-19T09:21:54.487Z,16.75
2023-04-19T09:23:04.675Z,16.66
2023-04-19T09:24:06.892Z,16.75
2023-04-19T09:26:22.314Z,16.77
2023-04-19T09:27:29.717Z,16.75
2023-04-19T09:28:31.876Z,16.79
2023-04-19T09:29:33.463Z,16.86
2023-04-19T09:30:43.448Z,16.82
2023-04-19T09:31:59.043Z,16.75
2023-04-19T09:33:00.933Z,16.86
2023-04-19T09:34:18.907Z,16.90
2023-04-19T09:35:20.538Z,16.96
2023-04-19T09:36:32.462Z,16.96
2023-04-19T09:38:50.263Z,16.79
2023-04-19T09:39:52.159Z,16.79
2023-04-19T09:40:54.286Z,16.68
2023-04-19T09:41:56.712Z,16.79
2023-04-19T09:44:50.198Z,16.89
2023-04-19T09:45:42.396Z,16.79
2023-04-19T09:46:45.676Z,16.75
2023-04-19T09:48:09.373Z,16.80
2023-04-19T09:49:21.755Z,16.80
2023-04-19T09:50:33.694Z,16.86
2023-04-19T09:51:43.733Z,16.77
2023-04-19T09:52:45.344Z,16.87
2023-04-19T09:53:46.933Z,16.87
2023-04-19T09:54:49.010Z,16.96
2023-04-19T09:56:00.355Z,17.03
2023-04-19T09:57:03.664Z,17.02
2023-04-19T09:58:05.283Z,17.11
2023-04-19T09:59:19.939Z,17.20
2023-04-19T10:00:22.884Z,17.26
2023-04-19T10:01:24.614Z,17.28
2023-04-19T10:02:27.035Z,17.14
2023-04-19T10:03:28.953Z,16.87
2023-04-19T10:04:44.179Z,16.77
2023-04-19T10:05:52.458Z,16.86
2023-04-19T10:07:19.467Z,16.86
2023-04-19T10:08:16.204Z,16.87
2023-04-19T10:09:22.661Z,16.96
2023-04-19T10:10:33.276Z,16.91
2023-04-19T10:11:46.917Z,16.97
2023-04-19T10:13:15.450Z,16.87
2023-04-19T10:14:13.036Z,16.91
2023-04-19T10:15:14.993Z,16.94
2023-04-19T10:16:20.292Z,16.90
2023-04-19T10:17:23.168Z,16.94
2023-04-19T10:18:24.985Z,16.90
2023-04-19T10:19:26.613Z,16.94
2023-04-19T10:20:34.304Z,17.04
2023-04-19T10:21:36.188Z,17.14
2023-04-19T10:22:38.729Z,17.11
2023-04-19T10:23:40.464Z,17.24
2023-04-19T10:25:07.575Z,17.31
2023-04-19T10:26:09.235Z,17.24
2023-04-19T10:27:12.146Z,17.33
2023-04-19T10:28:15.807Z,17.33
2023-04-19T10:29:39.384Z,17.14
2023-04-19T10:30:53.223Z,17.00
2023-04-19T10:31:54.874Z,16.90
2023-04-19T10:32:57.740Z,16.96
2023-04-19T10:33:59.365Z,17.06
2023-04-19T10:35:10.012Z,17.16
2023-04-19T10:36:15.013Z,17.09
2023-04-19T10:37:16.761Z,17.07
2023-04-19T10:38:18.389Z,16.84
2023-04-19T10:39:41.991Z,16.94
2023-04-19T10:41:01.680Z,16.90
2023-04-19T10:42:03.437Z,16.75
2023-04-19T10:43:11.014Z,16.77
2023-04-19T10:44:12.631Z,16.84
2023-04-19T10:45:33.427Z,16.79
2023-04-19T10:46:36.309Z,16.83
2023-04-19T10:47:43.145Z,16.75
2023-04-19T10:48:54.368Z,16.77
2023-04-19T10:49:56.028Z,16.70
2023-04-19T10:51:22.687Z,16.65
2023-04-19T10:52:29.601Z,16.55
2023-04-19T10:53:43.963Z,16.68
2023-04-19T10:54:45.689Z,16.76
2023-04-19T10:55:51.120Z,16.82
2023-04-19T10:57:02.873Z,16.91
2023-04-19T10:58:07.667Z,16.94
2023-04-19T10:59:15.011Z,17.03
2023-04-19T11:00:25.734Z,17.10
2023-04-19T11:01:47.005Z,17.16
2023-04-19T11:02:48.832Z,17.20
2023-04-19T11:03:54.056Z,17.26
2023-04-19T11:04:55.986Z,17.28
2023-04-19T11:06:19.011Z,17.33
2023-04-19T11:07:23.294Z,17.27
2023-04-19T11:08:24.941Z,17.34
2023-04-19T11:09:39.698Z,17.34
2023-04-19T11:10:41.262Z,17.28
2023-04-19T11:11:43.033Z,17.33
2023-04-19T11:12:44.947Z,17.27
2023-04-19T11:13:49.687Z,17.06
2023-04-19T11:14:57.575Z,17.21
2023-04-19T11:15:59.609Z,17.19
2023-04-19T11:17:05.228Z,17.09
2023-04-19T11:18:13.033Z,17.17
2023-04-19T11:19:18.568Z,17.02
2023-04-19T11:20:23.464Z,17.13
2023-04-19T11:21:25.072Z,17.09
2023-04-19T11:22:30.012Z,17.06
2023-04-19T11:23:31.601Z,16.99
2023-04-19T11:24:35.360Z,17.04
2023-04-19T11:25:37.055Z,17.06
2023-04-19T11:26:38.821Z,16.99
2023-04-19T11:27:41.107Z,16.90
2023-04-19T11:28:42.707Z,16.82
2023-04-19T11:29:44.320Z,16.84
2023-04-19T11:30:46.435Z,16.66
2023-04-19T11:31:48.086Z,16.75
2023-04-19T11:32:53.211Z,16.73
2023-04-19T11:33:54.859Z,16.52
2023-04-19T11:34:56.447Z,16.55
2023-04-19T11:35:58.076Z,16.53
2023-04-19T11:36:59.629Z,16.51
2023-04-19T11:38:01.932Z,16.53
2023-04-19T11:39:06.833Z,16.48
2023-04-19T11:40:09.299Z,16.47
2023-04-19T11:41:10.967Z,16.48
2023-04-19T11:42:21.329Z,16.33
2023-04-19T11:43:23.045Z,16.47
2023-04-19T11:44:24.687Z,16.42
2023-04-19T11:45:38.107Z,16.53
2023-04-19T11:46:41.040Z,16.60
2023-04-19T11:47:49.281Z,16.66
2023-04-19T11:48:53.917Z,16.73
2023-04-19T11:49:56.476Z,16.62
2023-04-19T11:50:58.665Z,16.65
2023-04-19T11:52:03.799Z,16.60
2023-04-19T11:53:21.345Z,16.58
2023-04-19T11:54:23.897Z,16.63
2023-04-19T11:55:25.525Z,16.66
2023-04-19T11:56:27.237Z,16.73
2023-04-19T11:57:32.277Z,16.76
2023-04-19T11:58:40.135Z,16.82
2023-04-19T12:00:01.636Z,16.87
2023-04-19T12:01:10.038Z,16.91
2023-04-19T12:02:12.325Z,17.00
2023-04-19T12:03:14.303Z,17.10
2023-04-19T12:04:16.286Z,17.17
2023-04-19T12:05:18.753Z,17.23
2023-04-19T12:06:27.858Z,17.35
2023-04-19T12:07:29.447Z,17.27
2023-04-19T12:08:43.106Z,17.28
2023-04-19T12:09:44.741Z,17.33
2023-04-19T12:10:56.682Z,17.21
2023-04-19T12:11:58.482Z,17.28
2023-04-19T12:13:00.182Z,17.34
2023-04-19T12:14:22.919Z,17.35
2023-04-19T12:15:25.943Z,17.33
2023-04-19T12:16:29.266Z,17.28
2023-04-19T12:17:31.324Z,17.21
2023-04-19T12:18:51.530Z,17.21
2023-04-19T12:19:53.348Z,17.27
2023-04-19T12:20:55.079Z,17.31
2023-04-19T12:22:08.430Z,17.30
2023-04-19T12:23:13.871Z,17.26
2023-04-19T12:24:16.076Z,17.37
2023-04-19T12:25:17.807Z,17.37
2023-04-19T12:26:19.854Z,17.40
2023-04-19T12:27:21.630Z,17.38
2023-04-19T12:28:23.246Z,17.41
2023-04-19T12:29:24.894Z,17.43
2023-04-19T12:30:26.593Z,17.43
2023-04-19T12:31:28.535Z,17.45
2023-04-19T12:32:30.500Z,17.45
2023-04-19T12:33:32.143Z,17.44
2023-04-19T12:34:33.842Z,17.41
2023-04-19T12:35:36.037Z,17.50
2023-04-19T12:36:37.650Z,17.52
2023-04-19T12:37:39.322Z,17.60
2023-04-19T12:38:41.218Z,17.64
2023-04-19T12:39:42.871Z,17.72
2023-04-19T12:40:44.492Z,17.81
2023-04-19T12:41:48.773Z,17.75
2023-04-19T12:42:50.453Z,17.68
2023-04-19T12:43:52.043Z,17.67
2023-04-19T12:44:53.709Z,17.54
2023-04-19T12:45:55.438Z,17.34
2023-04-19T12:46:57.759Z,17.43
2023-04-19T12:47:59.593Z,17.34
2023-04-19T12:49:01.358Z,17.44
2023-04-19T12:50:03.040Z,17.44
2023-04-19T12:51:05.730Z,17.41
2023-04-19T12:52:07.396Z,17.31
2023-04-19T12:53:09.581Z,17.27
2023-04-19T12:54:11.284Z,17.34
2023-04-19T12:55:13.043Z,17.27
2023-04-19T12:56:15.943Z,17.19
2023-04-19T12:57:17.521Z,17.27
2023-04-19T12:58:21.047Z,17.27
2023-04-19T12:59:22.709Z,17.20
2023-04-19T13:00:24.802Z,17.24
2023-04-19T13:01:26.561Z,17.26
2023-04-19T13:02:28.266Z,17.26
2023-04-19T13:03:33.162Z,17.26
2023-04-19T13:04:35.893Z,17.31
2023-04-19T13:05:37.555Z,17.26
2023-04-19T13:06:39.911Z,17.23
2023-04-19T13:07:41.681Z,17.14
2023-04-19T13:08:47.119Z,17.09
2023-04-19T13:09:49.289Z,17.11
2023-04-19T13:10:51.123Z,17.13
2023-04-19T13:11:52.716Z,16.99
2023-04-19T13:12:54.329Z,16.79
2023-04-19T13:13:56.097Z,16.70
2023-04-19T13:14:57.780Z,16.65
2023-04-19T13:15:59.449Z,16.69
2023-04-19T13:17:01.277Z,16.72
2023-04-19T13:18:03.005Z,16.70
2023-04-19T13:19:05.321Z,16.83
2023-04-19T13:20:07.698Z,16.69
2023-04-19T13:21:09.371Z,16.62
2023-04-19T13:22:11.482Z,16.62
2023-04-19T13:23:13.145Z,16.47
2023-04-19T13:24:15.074Z,16.51
2023-04-19T13:25:17.156Z,16.52
2023-04-19T13:26:18.898Z,16.45
2023-04-19T13:27:21.044Z,16.48
2023-04-19T13:28:22.645Z,16.51
2023-04-19T13:29:24.275Z,16.42
2023-04-19T13:30:25.983Z,16.32
2023-04-19T13:31:27.716Z,16.07
2023-04-19T13:32:29.577Z,15.93
2023-04-19T13:33:31.251Z,15.71
2023-04-19T13:34:33.377Z,15.73
2023-04-19T13:35:34.993Z,15.74
2023-04-19T13:36:36.693Z,15.56
2023-04-19T13:37:40.318Z,15.60
2023-04-19T13:38:41.953Z,15.51
2023-04-19T13:39:43.535Z,15.47
2023-04-19T13:40:45.300Z,15.37
2023-04-19T13:41:46.949Z,15.36
2023-04-19T13:42:48.561Z,15.25
2023-04-19T13:43:50.160Z,15.26
2023-04-19T13:44:51.752Z,15.30